Key West, FL

4:08 AM EST on November 26, 2014 (GMT -0500)
Big Coppitt Key Gulfside | Change Station
CLOSE
Current Station
Personal Weather Station
Location: Key West, FL
Elevation: 31 ft
Nearby Weather Stations

Elev 31 ft 24.60 °N, 81.67 °W | Updated 3 minutes ago

Mostly Cloudy
Mostly Cloudy
79.2 °F
Feels Like 84 °F
N
9.4
Wind Variable Wind from SSW

Today
High -- | Low -- °F
--% Chance of Precip.
Yesterday
High -- | Low -- °F
Precip. -- in
6:50 AM 5:37 PM
Waxing Crescent, 18% visible
Pressure 29.93 in
Visibility 10.0 miles
Clouds Mostly Cloudy 7500 ft
Overcast 10000 ft
Heat Index 84 °F
Dew Point 77 °F
Humidity 94%
Rainfall 0.00 in
Snow Depth Not available.
UV 0 out of 12
Pollen 2.50 out of 12
Air Quality Not available.
Flu Activity Not available.
METAR KNQX 260853Z AUTO 20014KT 10SM BKN075 OVC100 26/25 A2994 RMK AO2 SLP135 T02560250 53001 $

More Conditions Fewer Conditions

Pressure 29.93 in
Visibility 10.0 miles
Clouds Mostly Cloudy 7500 ft
Overcast 10000 ft
Heat Index 84 °F
Dew Point 77 °F
Humidity 94%
Rainfall 0.00 in
Snow Depth Not available.
UV 0 out of 12
Pollen 2.50 out of 12
Air Quality Not available.
Flu Activity Not available.
METAR KNQX 260853Z AUTO 20014KT 10SM BKN075 OVC100 26/25 A2994 RMK AO2 SLP135 T02560250 53001 $

More Conditions Fewer Conditions

Nowcast | as of 2:56 am EST on November 26, 2014

Through 430 am...a line of showers with embedded isolated thunderstorms... related to the approaching of a cold front...will continue to move slowly into the southeast Gulf waters and Florida Straits. Clusters of moderate to heavy showers will progress to the southeast causing visibility to be reduced to a few miles...gusty winds near 30 knots and occasional lightning. Elsewhere...isolated quick showers are moving across Keys waters and more are expected to continue developing.

×

10-Day Weather Forecast

Almanac

Astronomy

Nov. 26, 2014 Rise Set
Actual Time
Civil Twilight
Nautical Twilight
Astronomical Twilight
Moon
Length of Visible Light
Length of Day
Tomorrow will be .
, % of the Moon is Illuminated

Today's Extremes

State Highs State Lows

Community

WunderPhotos

Upload Photos

1,773,694 photos uploaded!

WunderBlogs® & News

Nearby

Air Quality

  Air Quality AQ Index Pollutant
Not available.

Snow Depth

Station Depth Elevation

Earthquake Activity

City Distance Mag. Time & Date
Minimum magnitude displayed is 2.5.

Coastal Water Temperatures

Place Temperature

Nearby Weather Stations